createdAt,value
2022-08-07T00:00:07.965Z,99.90
2022-08-07T00:05:30.026Z,99.90
2022-08-07T00:10:57.383Z,99.90
2022-08-07T00:16:21.580Z,99.90
2022-08-07T00:21:56.634Z,99.90
2022-08-07T00:27:23.848Z,99.90
2022-08-07T00:32:49.249Z,99.90
2022-08-07T00:38:11.106Z,99.90
2022-08-07T00:43:59.260Z,99.90
2022-08-07T00:50:16.774Z,99.90
2022-08-07T00:54:58.574Z,99.90
2022-08-07T01:00:26.851Z,99.90
2022-08-07T01:05:51.687Z,99.90
2022-08-07T01:12:23.646Z,99.90
2022-08-07T01:16:57.432Z,99.90
2022-08-07T01:22:22.947Z,99.90
2022-08-07T01:27:51.641Z,99.90
2022-08-07T01:33:13.559Z,99.90
2022-08-07T01:38:35.856Z,99.90
2022-08-07T01:43:58.180Z,99.90
2022-08-07T01:49:22.267Z,99.90
2022-08-07T01:54:44.246Z,99.90
2022-08-07T02:00:13.205Z,99.90
2022-08-07T02:05:47.838Z,99.90
2022-08-07T02:11:10.530Z,99.90
2022-08-07T02:16:52.316Z,99.90
2022-08-07T02:22:14.179Z,99.90
2022-08-07T02:27:41.291Z,99.90
2022-08-07T02:33:09.210Z,99.90
2022-08-07T02:38:32.320Z,99.90
2022-08-07T02:43:54.189Z,99.90
2022-08-07T02:49:28.926Z,99.90
2022-08-07T02:54:57.892Z,99.90
2022-08-07T03:00:19.975Z,99.90
2022-08-07T03:05:42.750Z,99.90
2022-08-07T03:11:04.569Z,99.90
2022-08-07T03:16:27.777Z,99.90
2022-08-07T03:21:50.895Z,99.90
2022-08-07T03:27:12.965Z,99.90
2022-08-07T03:32:58.841Z,99.90
2022-08-07T03:38:29.757Z,99.90
2022-08-07T03:43:57.194Z,99.90
2022-08-07T03:49:19.532Z,99.90
2022-08-07T03:54:54.396Z,99.90
2022-08-07T04:00:17.228Z,99.90
2022-08-07T04:05:45.712Z,99.90
2022-08-07T04:12:21.288Z,99.90
2022-08-07T04:16:58.160Z,99.90
2022-08-07T04:22:20.822Z,99.90
2022-08-07T04:27:46.235Z,99.90
2022-08-07T04:33:23.209Z,99.90
2022-08-07T04:38:45.126Z,99.90
2022-08-07T04:44:12.654Z,99.90
2022-08-07T04:49:40.112Z,99.90
2022-08-07T04:55:01.965Z,99.90
2022-08-07T05:00:37.551Z,99.90
2022-08-07T05:06:00.561Z,99.90
2022-08-07T05:11:26.122Z,99.90
2022-08-07T05:16:52.701Z,99.90
2022-08-07T05:22:26.707Z,99.90
2022-08-07T05:28:03.163Z,99.90
2022-08-07T05:33:31.566Z,99.90
2022-08-07T05:39:01.015Z,99.90
2022-08-07T05:44:30.701Z,99.90
2022-08-07T05:49:52.529Z,99.90
2022-08-07T05:55:16.158Z,99.90
2022-08-07T06:00:38.048Z,99.90
2022-08-07T06:06:01.448Z,99.90
2022-08-07T06:11:23.900Z,99.90
2022-08-07T06:16:45.731Z,99.90
2022-08-07T06:22:22.653Z,99.90
2022-08-07T06:28:01.165Z,99.90
2022-08-07T06:33:23.947Z,99.70
2022-08-07T06:38:59.586Z,97.50
2022-08-07T06:44:31.110Z,96.70
2022-08-07T06:49:58.893Z,95.10
2022-08-07T06:55:32.013Z,93.80
2022-08-07T07:01:02.979Z,91.60
2022-08-07T07:06:26.538Z,91.70
2022-08-07T07:12:08.282Z,90.00
2022-08-07T07:17:39.046Z,90.20
2022-08-07T07:24:09.264Z,90.50
2022-08-07T07:29:28.586Z,86.80
2022-08-07T07:34:30.673Z,85.70
2022-08-07T07:39:54.980Z,84.80
2022-08-07T07:45:17.301Z,84.40
2022-08-07T07:50:42.844Z,82.40
2022-08-07T07:56:07.326Z,81.50
2022-08-07T08:02:03.892Z,83.00
2022-08-07T08:07:10.978Z,81.60
2022-08-07T08:12:52.627Z,76.60
2022-08-07T08:18:17.880Z,73.50
2022-08-07T08:23:40.443Z,74.30
2022-08-07T08:29:02.539Z,70.90
2022-08-07T08:34:27.276Z,71.90
2022-08-07T08:39:55.247Z,70.80
2022-08-07T08:45:20.597Z,69.70
2022-08-07T08:50:48.588Z,69.70
2022-08-07T08:56:13.507Z,67.50
2022-08-07T09:01:43.775Z,70.70
2022-08-07T09:07:11.379Z,67.60
2022-08-07T09:12:33.360Z,68.10
2022-08-07T09:17:59.537Z,68.30
2022-08-07T09:24:28.653Z,63.80
2022-08-07T09:30:02.282Z,65.60
2022-08-07T09:34:54.075Z,66.30
2022-08-07T09:40:16.175Z,63.70
2022-08-07T09:47:23.555Z,65.00
2022-08-07T09:52:15.933Z,61.70
2022-08-07T09:57:03.423Z,60.90
2022-08-07T10:02:29.583Z,63.40
2022-08-07T10:07:55.089Z,58.50
2022-08-07T10:13:29.711Z,58.00
2022-08-07T10:18:59.295Z,59.80
2022-08-07T10:24:21.596Z,60.30
2022-08-07T10:29:45.826Z,62.30
2022-08-07T10:35:09.084Z,62.30
2022-08-07T10:40:34.335Z,64.00
2022-08-07T10:45:58.429Z,64.00
2022-08-07T10:51:39.079Z,60.70
2022-08-07T10:57:01.717Z,61.40
2022-08-07T11:02:32.898Z,60.80
2022-08-07T11:07:58.289Z,59.50
2022-08-07T11:14:45.362Z,59.50
2022-08-07T11:19:05.106Z,57.50
2022-08-07T11:24:28.802Z,60.00
2022-08-07T11:30:10.055Z,59.60
2022-08-07T11:35:32.465Z,60.70
2022-08-07T11:40:55.188Z,61.60
2022-08-07T11:46:18.008Z,61.70
2022-08-07T11:51:41.607Z,60.40
2022-08-07T11:57:07.000Z,59.50
2022-08-07T12:02:34.739Z,60.40
2022-08-07T12:08:00.515Z,61.10
2022-08-07T12:13:35.430Z,61.50
2022-08-07T12:18:59.178Z,60.40
2022-08-07T12:24:37.775Z,64.50
2022-08-07T12:30:00.487Z,64.30
2022-08-07T12:35:24.063Z,64.00
2022-08-07T12:40:47.360Z,61.90
2022-08-07T12:46:10.276Z,60.30
2022-08-07T12:51:51.105Z,61.30
2022-08-07T12:57:26.177Z,61.60
2022-08-07T13:03:00.669Z,62.70
2022-08-07T13:08:28.666Z,63.30
2022-08-07T13:13:50.563Z,63.20
2022-08-07T13:19:21.866Z,63.50
2022-08-07T13:24:54.361Z,63.10
2022-08-07T13:30:18.891Z,61.80
2022-08-07T13:35:59.475Z,61.70
2022-08-07T13:41:23.333Z,59.70
2022-08-07T13:46:50.044Z,61.50
2022-08-07T13:52:30.501Z,63.30
2022-08-07T13:58:02.122Z,61.50
2022-08-07T14:03:29.536Z,61.30
2022-08-07T14:09:06.187Z,62.80
2022-08-07T14:14:28.027Z,63.80
2022-08-07T14:20:43.674Z,64.60
2022-08-07T14:25:39.147Z,63.30
2022-08-07T14:31:01.631Z,62.30
2022-08-07T14:36:24.419Z,62.50
2022-08-07T14:42:20.048Z,62.20
2022-08-07T14:47:28.347Z,63.20
2022-08-07T14:52:51.223Z,63.50
2022-08-07T14:58:23.991Z,63.10
2022-08-07T15:03:52.842Z,62.80
2022-08-07T15:14:57.881Z,64.00
2022-08-07T15:20:33.795Z,63.50
2022-08-07T15:25:57.561Z,64.60
2022-08-07T15:32:00.765Z,65.00
2022-08-07T15:37:04.356Z,64.60
2022-08-07T15:42:46.822Z,64.20
2022-08-07T15:48:12.558Z,64.50
2022-08-07T15:53:51.928Z,64.20
2022-08-07T15:59:16.304Z,63.50
2022-08-07T16:04:38.602Z,63.20
2022-08-07T16:10:00.425Z,62.80
2022-08-07T16:15:57.220Z,62.50
2022-08-07T16:22:01.242Z,62.00
2022-08-07T16:26:59.697Z,62.30
2022-08-07T16:32:32.911Z,62.60
2022-08-07T16:38:05.922Z,64.00
2022-08-07T16:44:03.929Z,62.70
2022-08-07T16:50:29.245Z,61.40
2022-08-07T16:54:55.030Z,61.30
2022-08-07T17:00:17.105Z,60.10
2022-08-07T17:06:28.652Z,59.90
2022-08-07T17:12:04.375Z,59.80
2022-08-07T17:17:15.698Z,59.90
2022-08-07T17:22:43.406Z,61.00
2022-08-07T17:28:06.782Z,62.50
2022-08-07T17:34:09.641Z,63.00
2022-08-07T17:39:15.516Z,64.50
2022-08-07T17:44:41.679Z,65.90
2022-08-07T17:50:14.118Z,67.10
2022-08-07T17:55:55.661Z,67.60
2022-08-07T18:01:21.378Z,68.70
2022-08-07T18:06:44.559Z,70.00
2022-08-07T18:12:19.765Z,71.00
2022-08-07T18:18:44.695Z,72.00
2022-08-07T18:23:43.516Z,72.90
2022-08-07T18:30:05.523Z,74.90
2022-08-07T18:35:00.999Z,75.90
2022-08-07T18:40:42.471Z,76.40
2022-08-07T18:46:21.839Z,78.00
2022-08-07T18:52:38.251Z,79.00
2022-08-07T18:57:30.830Z,80.60
2022-08-07T19:02:53.048Z,80.70
2022-08-07T19:08:17.037Z,83.60
2022-08-07T19:13:39.499Z,83.00
2022-08-07T19:19:02.406Z,83.50
2022-08-07T19:24:30.845Z,84.90
2022-08-07T19:31:04.153Z,86.40
2022-08-07T19:35:35.966Z,87.40
2022-08-07T19:40:58.255Z,87.70
2022-08-07T19:46:20.115Z,89.80
2022-08-07T19:51:51.968Z,90.80
2022-08-07T19:58:00.140Z,91.30
2022-08-07T20:02:57.710Z,91.20
2022-08-07T20:08:21.668Z,90.90
2022-08-07T20:13:43.516Z,91.50
2022-08-07T20:19:05.382Z,91.80
2022-08-07T20:24:28.797Z,92.70
2022-08-07T20:29:58.372Z,93.30
2022-08-07T20:35:26.135Z,93.40
2022-08-07T20:40:51.535Z,94.60
2022-08-07T20:46:27.238Z,95.20
2022-08-07T20:51:52.264Z,95.40
2022-08-07T20:57:14.564Z,96.00
2022-08-07T21:08:16.899Z,96.10
2022-08-07T21:13:57.180Z,96.50
2022-08-07T21:19:31.831Z,96.60
2022-08-07T21:25:12.021Z,97.90
2022-08-07T21:30:35.171Z,98.20
2022-08-07T21:36:05.047Z,98.20
2022-08-07T21:41:37.828Z,99.40
2022-08-07T21:47:12.254Z,99.60
2022-08-07T21:52:38.154Z,99.90
2022-08-07T21:58:03.205Z,99.90
2022-08-07T22:03:31.476Z,99.90
2022-08-07T22:08:53.880Z,99.90
2022-08-07T22:14:23.726Z,99.90
2022-08-07T22:19:57.244Z,99.90
2022-08-07T22:25:19.282Z,99.90
2022-08-07T22:30:52.701Z,99.90
2022-08-07T22:36:15.110Z,99.90
2022-08-07T22:42:03.772Z,99.90
2022-08-07T22:47:20.220Z,99.90
2022-08-07T22:52:45.942Z,99.90
2022-08-07T22:58:07.958Z,99.90
2022-08-07T23:03:32.245Z,99.90
2022-08-07T23:10:04.784Z,99.90
2022-08-07T23:14:55.893Z,99.90
2022-08-07T23:20:18.849Z,99.90
2022-08-07T23:25:41.569Z,99.90
2022-08-07T23:31:07.167Z,99.90
2022-08-07T23:36:33.664Z,99.90
2022-08-07T23:42:04.418Z,99.90
2022-08-07T23:47:27.074Z,99.90
2022-08-07T23:53:08.780Z,99.90
2022-08-07T23:58:33.520Z,99.90
